createdAt,value
2022-11-07T00:01:47.236Z,47.01
2022-11-07T00:04:15.224Z,46.91
2022-11-07T00:06:42.370Z,46.84
2022-11-07T00:09:09.765Z,46.70
2022-11-07T00:11:37.058Z,46.91
2022-11-07T00:14:05.352Z,46.72
2022-11-07T00:16:32.986Z,46.65
2022-11-07T00:19:00.320Z,46.70
2022-11-07T00:21:27.986Z,46.61
2022-11-07T00:23:55.085Z,46.64
2022-11-07T00:26:22.498Z,46.69
2022-11-07T00:28:50.028Z,47.04
2022-11-07T00:31:18.013Z,47.00
2022-11-07T00:33:45.968Z,46.89
2022-11-07T00:36:23.517Z,46.96
2022-11-07T00:38:50.848Z,46.65
2022-11-07T00:41:18.435Z,47.03
2022-11-07T00:43:46.006Z,46.98
2022-11-07T00:46:15.910Z,46.81
2022-11-07T00:48:43.457Z,46.61
2022-11-07T00:51:14.391Z,46.85
2022-11-07T00:53:41.826Z,46.95
2022-11-07T00:56:12.769Z,46.55
2022-11-07T00:58:43.030Z,46.65
2022-11-07T01:01:20.044Z,46.69
2022-11-07T01:04:06.431Z,46.93
2022-11-07T01:06:37.769Z,46.74
2022-11-07T01:09:08.556Z,46.57
2022-11-07T01:11:38.134Z,46.69
2022-11-07T01:14:07.999Z,46.55
2022-11-07T01:16:35.487Z,46.45
2022-11-07T01:19:03.667Z,46.53
2022-11-07T01:21:31.098Z,47.05
2022-11-07T01:23:58.300Z,46.86
2022-11-07T01:26:25.498Z,46.77
2022-11-07T01:28:52.650Z,46.34
2022-11-07T01:31:19.855Z,46.68
2022-11-07T01:33:47.096Z,46.57
2022-11-07T01:36:17.501Z,46.83
2022-11-07T01:38:50.442Z,47.22
2022-11-07T01:41:22.972Z,46.78
2022-11-07T01:44:08.423Z,46.75
2022-11-07T01:46:39.774Z,46.53
2022-11-07T01:49:17.140Z,46.74
2022-11-07T01:52:04.246Z,46.79
2022-11-07T01:54:53.074Z,46.60
2022-11-07T01:57:27.340Z,46.61
2022-11-07T01:59:57.541Z,46.64
2022-11-07T02:02:27.447Z,46.66
2022-11-07T02:04:58.126Z,46.64
2022-11-07T02:07:25.854Z,46.70
2022-11-07T02:09:54.382Z,46.56
2022-11-07T02:12:24.890Z,46.54
2022-11-07T02:14:52.026Z,46.64
2022-11-07T02:17:19.870Z,46.58
2022-11-07T02:19:56.612Z,46.51
2022-11-07T02:22:54.364Z,46.59
2022-11-07T02:25:33.437Z,46.43
2022-11-07T04:31:12.617Z,46.60
2022-11-07T04:44:20.586Z,46.72
2022-11-07T04:53:05.808Z,46.99
2022-11-07T04:55:33.231Z,47.01
2022-11-07T04:58:00.419Z,46.83
2022-11-07T05:00:27.831Z,46.93
2022-11-07T05:02:58.303Z,46.75
2022-11-07T05:05:25.711Z,46.53
2022-11-07T05:07:52.854Z,46.43
2022-11-07T05:10:27.507Z,46.79
2022-11-07T05:12:56.678Z,46.79
2022-11-07T05:15:24.371Z,46.46
2022-11-07T05:17:51.478Z,46.66
2022-11-07T05:20:32.241Z,46.82
2022-11-07T05:23:16.226Z,46.81
2022-11-07T05:25:52.926Z,46.63
2022-11-07T05:28:35.205Z,46.72
2022-11-07T05:31:06.109Z,46.27
2022-11-07T05:33:35.613Z,46.30
2022-11-07T05:36:21.357Z,46.14
2022-11-07T05:38:52.125Z,46.68
2022-11-07T05:41:21.801Z,46.47
2022-11-07T05:43:49.119Z,46.24
2022-11-07T05:46:16.708Z,46.21
2022-11-07T05:48:43.902Z,46.58
2022-11-07T05:51:11.054Z,46.69
2022-11-07T05:53:38.616Z,46.40
2022-11-07T05:56:06.295Z,46.31
2022-11-07T05:58:33.568Z,46.12
2022-11-07T06:01:06.472Z,46.17
2022-11-07T06:03:34.169Z,46.33
2022-11-07T06:06:01.261Z,46.08
2022-11-07T06:08:28.423Z,46.22
2022-11-07T06:10:55.547Z,46.14
2022-11-07T06:13:22.852Z,46.35
2022-11-07T06:15:50.026Z,46.45
2022-11-07T06:18:20.457Z,46.09
2022-11-07T06:20:47.873Z,46.35
2022-11-07T06:23:15.970Z,46.15
2022-11-07T06:25:43.693Z,46.18
2022-11-07T06:28:12.809Z,46.06
2022-11-07T06:30:40.833Z,46.25
2022-11-07T06:33:13.231Z,45.97
2022-11-07T06:35:41.113Z,46.45
2022-11-07T06:38:11.299Z,46.44
2022-11-07T06:40:40.688Z,46.00
2022-11-07T06:43:19.175Z,46.10
2022-11-07T06:45:47.459Z,45.98
2022-11-07T06:48:14.562Z,46.41
2022-11-07T06:50:41.933Z,46.09
2022-11-07T06:53:12.956Z,46.48
2022-11-07T06:55:40.656Z,46.18
2022-11-07T06:58:08.087Z,45.91
2022-11-07T07:00:36.765Z,46.09
2022-11-07T07:03:04.154Z,46.28
2022-11-07T07:05:35.646Z,46.15
2022-11-07T07:08:05.147Z,46.40
2022-11-07T07:10:37.772Z,46.27
2022-11-07T07:13:05.054Z,46.22
2022-11-07T07:15:49.368Z,46.04
2022-11-07T07:18:17.867Z,46.12
2022-11-07T07:20:46.700Z,45.83
2022-11-07T07:23:14.026Z,46.23
2022-11-07T07:25:41.263Z,46.39
2022-11-07T07:28:08.510Z,46.33
2022-11-07T07:30:35.694Z,46.26
2022-11-07T07:33:03.001Z,45.99
2022-11-07T07:35:30.544Z,45.97
2022-11-07T07:38:22.003Z,46.23
2022-11-07T07:41:04.693Z,46.50
2022-11-07T07:43:41.216Z,45.99
2022-11-07T07:46:14.555Z,46.23
2022-11-07T07:48:46.570Z,46.33
2022-11-07T07:51:13.954Z,45.85
2022-11-07T07:53:41.434Z,46.12
2022-11-07T07:56:09.117Z,45.76
2022-11-07T07:58:36.694Z,46.05
2022-11-07T08:01:10.339Z,45.93
2022-11-07T08:03:59.716Z,46.30
2022-11-07T08:06:27.239Z,45.93
2022-11-07T08:08:54.518Z,46.35
2022-11-07T08:11:22.127Z,45.96
2022-11-07T08:13:49.515Z,46.29
2022-11-07T08:16:16.903Z,46.11
2022-11-07T08:18:44.109Z,45.88
2022-11-07T08:21:11.533Z,45.69
2022-11-07T08:23:39.007Z,45.95
2022-11-07T08:26:06.906Z,46.00
2022-11-07T08:28:36.274Z,46.18
2022-11-07T08:31:07.216Z,46.04
2022-11-07T08:33:35.338Z,45.68
2022-11-07T08:36:04.846Z,45.97
2022-11-07T08:38:34.718Z,46.12
2022-11-07T08:41:02.203Z,45.62
2022-11-07T08:43:29.872Z,45.87
2022-11-07T08:45:58.616Z,45.95
2022-11-07T08:48:26.537Z,45.82
2022-11-07T08:50:58.062Z,45.78
2022-11-07T08:53:27.977Z,45.89
2022-11-07T08:56:07.829Z,45.66
2022-11-07T08:58:37.067Z,46.03
2022-11-07T09:01:09.641Z,45.85
2022-11-07T09:03:52.937Z,45.71
2022-11-07T09:06:22.953Z,45.63
2022-11-07T09:08:50.126Z,46.00
2022-11-07T09:11:21.901Z,46.04
2022-11-07T09:13:49.132Z,45.82
2022-11-07T09:16:19.919Z,45.71
2022-11-07T09:19:01.736Z,45.72
2022-11-07T09:21:32.742Z,45.90
2022-11-07T09:24:00.315Z,46.10
2022-11-07T09:26:27.804Z,46.17
2022-11-07T09:29:00.803Z,46.11
2022-11-07T09:31:28.778Z,45.81
2022-11-07T09:33:56.151Z,45.71
2022-11-07T09:36:24.179Z,45.93
2022-11-07T09:38:51.704Z,45.50
2022-11-07T09:41:46.357Z,45.56
2022-11-07T09:44:57.463Z,45.74
2022-11-07T09:47:37.109Z,45.67
2022-11-07T09:50:29.867Z,45.89
2022-11-07T09:53:33.326Z,45.76
2022-11-07T09:56:04.706Z,45.92
2022-11-07T09:58:34.957Z,45.88
2022-11-07T10:01:09.670Z,45.52
2022-11-07T10:03:49.057Z,45.82
2022-11-07T10:06:32.625Z,45.89
2022-11-07T10:09:22.092Z,45.77
2022-11-07T10:12:00.144Z,45.64
2022-11-07T10:15:00.227Z,45.98
2022-11-07T10:17:47.839Z,45.95
2022-11-07T10:20:25.130Z,45.70
2022-11-07T10:23:56.041Z,45.49
2022-11-07T10:26:29.871Z,45.79
2022-11-07T10:29:17.288Z,45.86
2022-11-07T10:32:09.258Z,45.73
2022-11-07T10:35:24.810Z,45.54
2022-11-07T10:38:08.722Z,45.70
2022-11-07T10:40:42.080Z,45.62
2022-11-07T10:43:23.873Z,45.68
2022-11-07T10:45:52.407Z,45.59
2022-11-07T10:48:19.697Z,45.53
2022-11-07T10:50:57.424Z,45.92
2022-11-07T10:53:29.512Z,45.48
2022-11-07T10:55:58.892Z,45.56
2022-11-07T10:58:29.141Z,45.44
2022-11-07T11:01:08.372Z,45.47
2022-11-07T11:03:48.619Z,45.65
2022-11-07T11:06:19.027Z,45.45
2022-11-07T11:08:49.444Z,45.67
2022-11-07T11:11:32.284Z,45.70
2022-11-07T11:14:20.159Z,45.78
2022-11-07T11:16:57.144Z,45.48
2022-11-07T11:19:26.636Z,45.65
2022-11-07T11:21:58.117Z,45.39
2022-11-07T11:24:31.674Z,45.81
2022-11-07T11:27:07.666Z,45.75
2022-11-07T11:29:44.943Z,45.68
2022-11-07T11:32:27.994Z,45.45
2022-11-07T11:35:43.222Z,45.73
2022-11-07T11:38:33.335Z,45.87
2022-11-07T11:41:13.645Z,45.29
2022-11-07T11:44:04.450Z,45.80
2022-11-07T11:47:15.348Z,45.80
2022-11-07T11:49:59.130Z,45.57
2022-11-07T11:52:27.976Z,45.47
2022-11-07T11:55:01.923Z,45.58
2022-11-07T11:58:19.345Z,45.75
2022-11-07T12:01:13.275Z,45.80
2022-11-07T12:03:49.513Z,45.80
2022-11-07T12:06:46.268Z,45.62
2022-11-07T12:09:52.144Z,45.60
2022-11-07T12:12:40.217Z,45.70
2022-11-07T12:15:31.923Z,45.92
2022-11-07T12:18:23.905Z,45.73
2022-11-07T12:20:56.052Z,45.52
2022-11-07T12:23:51.788Z,45.53
2022-11-07T12:26:48.907Z,45.34
2022-11-07T12:29:28.567Z,45.46
2022-11-07T12:32:11.113Z,45.66
2022-11-07T12:35:10.200Z,45.42
2022-11-07T12:38:15.840Z,45.64
2022-11-07T12:41:28.632Z,45.49
2022-11-07T12:44:12.216Z,45.69
2022-11-07T12:51:40.452Z,45.29
2022-11-07T12:54:47.837Z,45.37
2022-11-07T12:57:37.758Z,45.79
2022-11-07T13:00:27.596Z,45.79
2022-11-07T13:03:50.096Z,45.67
2022-11-07T13:06:59.790Z,45.64
2022-11-07T13:10:29.724Z,45.76
2022-11-07T13:13:12.428Z,45.92
2022-11-07T13:16:08.970Z,45.62
2022-11-07T13:18:28.485Z,45.51
2022-11-07T13:21:20.759Z,45.41
2022-11-07T13:23:51.699Z,45.73
2022-11-07T13:29:38.466Z,45.71
2022-11-07T13:32:16.779Z,45.89
2022-11-07T13:34:59.225Z,45.43
2022-11-07T13:37:36.316Z,45.66
2022-11-07T13:40:32.025Z,45.58
2022-11-07T13:43:55.705Z,45.72
2022-11-07T13:46:31.682Z,45.62
2022-11-07T13:49:16.343Z,45.87
2022-11-07T13:52:01.117Z,45.92
2022-11-07T13:54:47.807Z,45.48
2022-11-07T13:57:33.162Z,45.58
2022-11-07T14:00:16.491Z,45.70
2022-11-07T14:03:09.454Z,45.58
2022-11-07T14:05:43.132Z,45.26
2022-11-07T14:08:25.899Z,45.67
2022-11-07T14:11:05.620Z,45.39
2022-11-07T14:13:41.591Z,45.68
2022-11-07T14:16:26.861Z,45.58
2022-11-07T14:19:04.050Z,45.71
2022-11-07T14:21:34.900Z,45.60
2022-11-07T14:24:03.360Z,45.80
2022-11-07T14:26:38.823Z,45.63
2022-11-07T14:29:12.487Z,45.51
2022-11-07T14:31:53.724Z,45.66
2022-11-07T14:34:23.001Z,45.56
2022-11-07T14:37:07.293Z,45.68
2022-11-07T14:39:57.463Z,45.77
2022-11-07T14:42:28.243Z,45.63
2022-11-07T14:44:59.044Z,45.43
2022-11-07T14:47:34.007Z,45.64
2022-11-07T14:50:09.981Z,45.80
2022-11-07T14:53:00.054Z,45.86
2022-11-07T14:55:36.249Z,45.43
2022-11-07T14:58:10.376Z,45.68
2022-11-07T15:00:39.336Z,45.60
2022-11-07T15:03:06.887Z,45.29
2022-11-07T15:05:45.319Z,45.59
2022-11-07T15:08:56.934Z,45.76
2022-11-07T15:11:52.299Z,45.69
2022-11-07T15:14:50.533Z,45.59
2022-11-07T15:17:25.331Z,45.34
2022-11-07T15:20:03.571Z,45.40
2022-11-07T15:22:38.577Z,45.76
2022-11-07T15:25:56.599Z,45.55
2022-11-07T15:28:33.819Z,45.82
2022-11-07T15:31:01.927Z,45.70
2022-11-07T15:33:33.478Z,45.58
2022-11-07T15:36:02.232Z,45.49
2022-11-07T15:38:30.129Z,45.62
2022-11-07T15:40:57.347Z,45.81
2022-11-07T15:43:24.756Z,45.33
2022-11-07T15:45:54.940Z,45.56
2022-11-07T15:48:28.862Z,45.11
2022-11-07T15:50:56.163Z,45.41
2022-11-07T15:53:26.502Z,45.42
2022-11-07T15:55:56.539Z,45.27
2022-11-07T15:58:26.932Z,45.24
2022-11-07T16:00:55.204Z,45.50
2022-11-07T16:03:25.458Z,45.48
2022-11-07T16:05:55.495Z,45.30
2022-11-07T16:08:24.516Z,45.25
2022-11-07T16:11:04.564Z,45.66
2022-11-07T16:13:32.335Z,45.58
2022-11-07T16:16:03.248Z,45.64
2022-11-07T16:18:43.373Z,45.45
2022-11-07T16:21:11.680Z,45.55
2022-11-07T16:23:43.189Z,45.41
2022-11-07T16:26:26.631Z,45.17
2022-11-07T16:28:53.997Z,45.56
2022-11-07T16:31:21.228Z,45.34
2022-11-07T16:33:48.560Z,45.63
2022-11-07T16:36:25.382Z,45.44
2022-11-07T16:38:53.021Z,45.50
2022-11-07T16:41:20.360Z,45.13
2022-11-07T16:43:47.812Z,45.40
2022-11-07T16:46:21.475Z,45.32
2022-11-07T16:49:04.127Z,45.15
2022-11-07T16:51:33.071Z,45.46
2022-11-07T16:54:00.242Z,45.62
2022-11-07T16:56:31.660Z,45.29
2022-11-07T16:59:00.034Z,45.28
2022-11-07T17:01:28.389Z,45.30
2022-11-07T17:03:55.694Z,45.39
2022-11-07T17:06:30.532Z,45.20
2022-11-07T17:09:06.115Z,45.54
2022-11-07T17:11:39.104Z,45.49
2022-11-07T17:14:06.168Z,45.47
2022-11-07T17:16:36.688Z,45.55
2022-11-07T17:19:05.887Z,45.59
2022-11-07T17:21:37.925Z,45.33
2022-11-07T17:24:06.051Z,45.75
2022-11-07T17:26:37.785Z,45.81
2022-11-07T17:29:08.187Z,45.38
2022-11-07T17:31:35.612Z,45.43
2022-11-07T17:34:03.051Z,45.42
2022-11-07T17:36:37.523Z,45.69
2022-11-07T17:39:11.376Z,45.67
2022-11-07T17:41:40.731Z,45.23
2022-11-07T17:44:08.261Z,45.22
2022-11-07T17:46:37.435Z,45.34
2022-11-07T17:49:07.192Z,45.42
2022-11-07T17:51:39.491Z,45.40
2022-11-07T17:54:07.043Z,45.62
2022-11-07T17:56:34.558Z,45.53
2022-11-07T17:59:14.429Z,45.29
2022-11-07T18:01:42.000Z,45.55
2022-11-07T18:04:12.478Z,45.33
2022-11-07T18:06:42.336Z,45.67
2022-11-07T18:09:15.802Z,45.06
2022-11-07T18:11:44.243Z,45.64
2022-11-07T18:14:14.076Z,45.63
2022-11-07T18:16:42.349Z,45.33
2022-11-07T18:19:10.818Z,45.30
2022-11-07T18:21:38.028Z,45.40
2022-11-07T18:24:05.507Z,45.51
2022-11-07T18:26:33.476Z,45.48
2022-11-07T18:29:05.196Z,45.51
2022-11-07T18:31:32.354Z,45.29
2022-11-07T18:34:03.455Z,45.78
2022-11-07T18:36:32.190Z,45.14
2022-11-07T18:39:05.611Z,45.59
2022-11-07T18:41:32.866Z,45.57
2022-11-07T18:44:04.464Z,45.63
2022-11-07T18:46:32.323Z,45.67
2022-11-07T18:49:00.288Z,45.43
2022-11-07T18:51:27.479Z,45.35
2022-11-07T18:53:55.627Z,45.34
2022-11-07T18:56:22.903Z,45.26
2022-11-07T18:58:49.980Z,45.30
2022-11-07T19:01:26.664Z,45.55
2022-11-07T19:03:56.482Z,45.31
2022-11-07T19:06:26.375Z,45.66
2022-11-07T19:08:53.993Z,45.11
2022-11-07T19:11:26.531Z,45.60
2022-11-07T19:13:53.736Z,45.43
2022-11-07T19:16:22.122Z,45.19
2022-11-07T19:18:50.268Z,45.29
2022-11-07T19:21:23.571Z,45.52
2022-11-07T19:23:52.053Z,45.47
2022-11-07T19:26:19.824Z,45.54
2022-11-07T19:28:47.728Z,45.59
2022-11-07T19:31:15.445Z,45.64
2022-11-07T19:33:43.637Z,45.47
2022-11-07T19:36:17.194Z,45.51
2022-11-07T19:38:45.250Z,45.40
2022-11-07T19:41:13.768Z,45.24
2022-11-07T19:43:42.597Z,45.64
2022-11-07T19:46:19.607Z,45.07
2022-11-07T19:48:47.749Z,45.29
2022-11-07T19:51:21.506Z,45.41
2022-11-07T19:53:58.739Z,45.30
2022-11-07T19:56:29.153Z,45.54
2022-11-07T19:58:56.573Z,45.46
2022-11-07T20:01:28.175Z,45.29
2022-11-07T20:03:56.395Z,45.12
2022-11-07T20:06:37.132Z,45.44
2022-11-07T20:09:15.037Z,45.61
2022-11-07T20:11:43.317Z,45.17
2022-11-07T20:14:12.381Z,45.37
2022-11-07T20:16:39.789Z,45.24
2022-11-07T20:19:07.314Z,45.41
2022-11-07T20:21:34.475Z,45.31
2022-11-07T20:24:01.671Z,45.50
2022-11-07T20:26:30.614Z,45.41
2022-11-07T20:28:58.872Z,45.05
2022-11-07T20:31:30.447Z,45.35
2022-11-07T20:34:03.410Z,45.55
2022-11-07T20:36:33.753Z,45.24
2022-11-07T20:39:01.977Z,45.31
2022-11-07T20:41:29.754Z,45.76
2022-11-07T20:44:03.939Z,45.58
2022-11-07T20:46:34.648Z,45.58
2022-11-07T20:49:10.888Z,45.48
2022-11-07T20:51:38.053Z,45.66
2022-11-07T20:54:05.868Z,45.28
2022-11-07T20:56:33.919Z,45.43
2022-11-07T20:59:01.319Z,45.19
2022-11-07T21:01:38.228Z,45.42
2022-11-07T21:04:17.037Z,45.14
2022-11-07T21:06:44.534Z,45.28
2022-11-07T21:09:12.364Z,45.52
2022-11-07T21:11:41.598Z,45.26
2022-11-07T21:14:10.309Z,45.52
2022-11-07T21:16:37.502Z,45.00
2022-11-07T21:19:07.985Z,45.29
2022-11-07T21:21:35.234Z,45.26
2022-11-07T21:24:03.323Z,45.52
2022-11-07T21:26:41.569Z,45.01
2022-11-07T21:29:09.591Z,45.45
2022-11-07T21:31:39.588Z,45.30
2022-11-07T21:34:09.216Z,45.23
2022-11-07T21:36:36.621Z,45.14
2022-11-07T21:39:04.797Z,45.25
2022-11-07T21:41:32.043Z,45.23
2022-11-07T21:43:59.865Z,45.23
2022-11-07T21:46:31.579Z,45.38
2022-11-07T21:48:59.449Z,45.60
2022-11-07T21:51:30.200Z,45.24
2022-11-07T21:53:59.351Z,45.39
2022-11-07T21:56:35.409Z,45.54
2022-11-07T21:59:07.670Z,45.48
2022-11-07T22:01:36.178Z,45.44
2022-11-07T22:04:11.119Z,45.09
2022-11-07T22:06:43.610Z,45.39
2022-11-07T22:09:16.130Z,45.17
2022-11-07T22:11:44.076Z,44.99
2022-11-07T22:14:15.885Z,45.13
2022-11-07T22:16:43.268Z,45.46
2022-11-07T22:19:12.748Z,45.32
2022-11-07T22:21:40.958Z,45.23
2022-11-07T22:24:09.327Z,45.52
2022-11-07T22:26:36.786Z,45.44
2022-11-07T22:29:05.569Z,45.34
2022-11-07T22:31:32.828Z,45.48
2022-11-07T22:34:01.102Z,45.28
2022-11-07T22:36:29.891Z,45.07
2022-11-07T22:38:58.757Z,45.13
2022-11-07T22:41:29.021Z,44.95
2022-11-07T22:43:57.429Z,45.41
2022-11-07T22:46:30.183Z,45.39
2022-11-07T22:48:59.313Z,45.13
2022-11-07T22:51:34.362Z,45.34
2022-11-07T22:54:05.968Z,45.15
2022-11-07T22:56:35.376Z,45.28
2022-11-07T22:59:03.886Z,45.32
2022-11-07T23:01:35.571Z,45.57
2022-11-07T23:04:03.184Z,45.51
2022-11-07T23:06:30.918Z,45.58
2022-11-07T23:08:59.470Z,45.15
2022-11-07T23:11:48.559Z,45.18
2022-11-07T23:14:20.217Z,45.20
2022-11-07T23:16:51.147Z,45.40
2022-11-07T23:19:21.807Z,45.32
2022-11-07T23:21:50.867Z,45.30
2022-11-07T23:24:18.127Z,45.23
2022-11-07T23:26:45.378Z,45.15
2022-11-07T23:29:23.077Z,45.11
2022-11-07T23:31:51.817Z,45.06
2022-11-07T23:34:20.183Z,45.25
2022-11-07T23:36:51.337Z,45.15
2022-11-07T23:39:21.799Z,45.21
2022-11-07T23:41:49.697Z,45.44
2022-11-07T23:44:16.757Z,45.41
2022-11-07T23:47:03.257Z,45.12
2022-11-07T23:49:49.626Z,45.56
2022-11-07T23:52:17.920Z,45.37
2022-11-07T23:55:03.852Z,45.18
2022-11-07T23:57:55.411Z,45.23
